Time;durP1;ratioP1;P1;durP2;ratioP2;P2;SDS_P1;SDS_P2;PMS_P1;PMS_P2;Temp;Humidity;BMP_temperature;BMP_pressure;BME280_temperature;BME280_humidity;BME280_pressure;Samples;Min_cycle;Max_cycle;Signal;HPM_P1;HPM_P2
2023/02/25 00:01:16;;;;;;;11.10;3.28;;;4.30;99.90;;;;;;6186840;23;20820;-82
2023/02/25 00:03:42;;;;;;;7.82;2.38;;;4.00;99.90;;;;;;6184402;23;20367;-81
2023/02/25 00:06:15;;;;;;;6.05;2.50;;;3.00;99.90;;;;;;6181434;23;20703;-82
2023/02/25 00:08:45;;;;;;;4.53;1.90;;;2.50;99.90;;;;;;6182529;23;20781;-81
2023/02/25 00:11:12;;;;;;;5.22;1.90;;;2.20;99.90;;;;;;6182752;23;20366;-84
2023/02/25 00:13:39;;;;;;;5.15;1.67;;;2.20;99.90;;;;;;6182250;23;20422;-81
2023/02/25 00:16:06;;;;;;;4.70;1.67;;;2.10;99.90;;;;;;6180890;23;20386;-82
2023/02/25 00:18:32;;;;;;;4.45;1.70;;;2.10;99.90;;;;;;6155654;23;20711;-82
2023/02/25 00:20:59;;;;;;;4.18;1.58;;;2.20;99.90;;;;;;6170487;23;20332;-81
2023/02/25 00:23:25;;;;;;;5.07;1.95;;;2.30;99.90;;;;;;6169095;23;20818;-82
2023/02/25 00:26:02;;;;;;;5.80;2.25;;;2.20;99.90;;;;;;6176533;23;20336;-84
2023/02/25 00:28:28;;;;;;;4.30;1.98;;;2.30;99.90;;;;;;6156059;23;20355;-82
2023/02/25 00:30:54;;;;;;;7.93;2.03;;;2.50;99.90;;;;;;6183315;23;20339;-85
2023/02/25 00:33:19;;;;;;;6.72;2.17;;;2.40;99.90;;;;;;6156177;23;20343;-85
2023/02/25 00:35:45;;;;;;;5.80;2.30;;;2.40;99.90;;;;;;6182995;23;20427;-84
2023/02/25 00:38:11;;;;;;;6.60;2.10;;;2.50;99.90;;;;;;6182364;23;20707;-86
2023/02/25 00:40:38;;;;;;;6.40;2.50;;;2.50;99.90;;;;;;6183132;23;20718;-83
2023/02/25 00:43:04;;;;;;;7.85;2.70;;;2.50;99.90;;;;;;6183331;23;20371;-85
2023/02/25 00:45:30;;;;;;;7.75;3.20;;;2.60;99.90;;;;;;6183322;23;20350;-85
2023/02/25 00:47:56;;;;;;;7.05;2.90;;;2.60;99.90;;;;;;6182742;23;20347;-83
2023/02/25 00:50:22;;;;;;;6.20;2.83;;;2.70;99.90;;;;;;6183281;23;20327;-82
2023/02/25 00:52:48;;;;;;;7.35;3.22;;;2.90;99.90;;;;;;6182454;23;20431;-85
2023/02/25 00:55:13;;;;;;;9.17;3.60;;;2.90;99.90;;;;;;6183174;23;20913;-85
2023/02/25 00:57:39;;;;;;;12.73;4.18;;;2.90;99.90;;;;;;6183491;23;20339;-84
2023/02/25 01:00:14;;;;;;;11.10;4.35;;;3.00;99.90;;;;;;6183042;23;20382;-84
2023/02/25 01:02:41;;;;;;;9.85;4.18;;;3.10;99.90;;;;;;6183553;23;20332;-85
2023/02/25 01:05:08;;;;;;;10.73;3.95;;;3.10;99.90;;;;;;6156982;23;20356;-81
2023/02/25 01:07:33;;;;;;;11.10;4.68;;;3.10;99.90;;;;;;6183677;23;20878;-83
2023/02/25 01:09:59;;;;;;;13.32;5.03;;;3.20;99.90;;;;;;6185428;23;20371;-81
2023/02/25 01:12:25;;;;;;;11.40;4.63;;;3.20;99.90;;;;;;6186310;23;20343;-82
2023/02/25 01:14:53;;;;;;;11.57;5.00;;;3.20;99.90;;;;;;6186689;23;20356;-83
2023/02/25 01:17:19;;;;;;;13.80;4.95;;;3.40;99.90;;;;;;6185138;23;20451;-85
2023/02/25 01:19:44;;;;;;;16.10;5.38;;;3.20;99.90;;;;;;6159638;23;20695;-85
2023/02/25 01:22:10;;;;;;;12.75;5.32;;;3.20;99.90;;;;;;6185384;23;20331;-82
2023/02/25 01:24:36;;;;;;;16.53;5.97;;;3.30;99.90;;;;;;6158512;23;20443;-83
2023/02/25 01:27:02;;;;;;;12.33;5.53;;;3.40;99.90;;;;;;6156685;23;20354;-83
2023/02/25 01:29:31;;;;;;;12.35;5.32;;;3.40;99.90;;;;;;6184353;23;20795;-85
2023/02/25 01:32:00;;;;;;;14.18;5.97;;;3.40;99.90;;;;;;6185625;23;20347;-83
2023/02/25 01:34:27;;;;;;;12.77;5.83;;;3.40;99.90;;;;;;6184162;23;20679;-83
2023/02/25 01:36:54;;;;;;;11.77;5.10;;;3.40;99.90;;;;;;6184988;23;20375;-85
2023/02/25 01:39:23;;;;;;;10.63;5.35;;;3.40;99.90;;;;;;6185205;23;20336;-83
2023/02/25 01:41:49;;;;;;;10.27;4.43;;;3.40;99.90;;;;;;6186118;23;20346;-84
2023/02/25 01:44:20;;;;;;;6.82;4.10;;;3.40;99.90;;;;;;6184987;23;20343;-82
2023/02/25 01:46:52;;;;;;;7.97;4.22;;;3.40;99.90;;;;;;6183705;23;20352;-85
2023/02/25 01:49:46;;;;;;;5.13;3.80;;;3.40;99.90;;;;;;6183906;23;20352;-85
2023/02/25 01:52:17;;;;;;;5.90;3.63;;;3.30;99.90;;;;;;6179351;23;20347;-83
2023/02/25 01:54:45;;;;;;;6.45;3.60;;;3.40;99.90;;;;;;6184250;23;20368;-84
2023/02/25 01:57:15;;;;;;;5.00;3.50;;;3.40;99.90;;;;;;6157698;23;20339;-84
2023/02/25 01:59:42;;;;;;;5.55;3.20;;;3.50;99.90;;;;;;6185285;23;20462;-82
2023/02/25 02:02:11;;;;;;;5.30;3.20;;;3.50;99.90;;;;;;6184832;23;20391;-83
2023/02/25 02:04:39;;;;;;;5.65;3.20;;;3.40;99.90;;;;;;6186630;23;20371;-82
2023/02/25 02:07:05;;;;;;;5.47;3.22;;;3.50;99.90;;;;;;6158003;23;20348;-85
2023/02/25 02:09:32;;;;;;;6.20;3.10;;;3.50;99.90;;;;;;6188180;23;20379;-83
2023/02/25 02:12:00;;;;;;;4.63;3.08;;;3.50;99.90;;;;;;6184085;23;20355;-81
2023/02/25 02:14:31;;;;;;;4.77;2.90;;;3.50;99.90;;;;;;6184472;23;20457;-85
2023/02/25 02:17:12;;;;;;;4.28;3.00;;;3.50;99.90;;;;;;6157591;23;20358;-83
2023/02/25 02:19:47;;;;;;;5.07;2.80;;;3.50;99.90;;;;;;6184346;23;20343;-83
2023/02/25 02:22:37;;;;;;;4.38;3.30;;;3.40;99.90;;;;;;6183869;23;20370;-81
2023/02/25 02:25:24;;;;;;;5.35;3.30;;;3.40;99.90;;;;;;6184451;23;20332;-84
2023/02/25 02:28:27;;;;;;;4.38;2.97;;;3.40;99.90;;;;;;6156931;23;20348;-82
2023/02/25 02:31:11;;;;;;;3.37;2.80;;;3.40;99.90;;;;;;6157768;23;20399;-84
2023/02/25 02:33:51;;;;;;;6.35;3.00;;;3.50;99.90;;;;;;6184191;23;20387;-81
2023/02/25 02:36:58;;;;;;;4.05;2.67;;;3.50;99.90;;;;;;6184099;23;20359;-83
2023/02/25 02:39:32;;;;;;;3.90;3.00;;;3.50;99.90;;;;;;6064147;23;20389;-85
2023/02/25 02:42:15;;;;;;;3.88;3.10;;;3.50;99.90;;;;;;6166421;23;20336;-83
2023/02/25 02:44:53;;;;;;;4.93;2.72;;;3.50;99.90;;;;;;6182456;23;20506;-85
2023/02/25 02:47:31;;;;;;;3.97;2.50;;;3.50;99.90;;;;;;6183513;23;20340;-84
2023/02/25 02:50:10;;;;;;;3.72;2.72;;;3.60;99.90;;;;;;6147753;23;20385;-84
2023/02/25 02:52:48;;;;;;;3.20;2.90;;;3.60;99.90;;;;;;6148451;23;20365;-85
2023/02/25 02:55:29;;;;;;;3.08;2.58;;;3.50;99.90;;;;;;6150109;23;20694;-82
2023/02/25 02:58:15;;;;;;;3.53;2.60;;;3.50;99.90;;;;;;6151075;23;20345;-84
2023/02/25 03:00:43;;;;;;;2.88;2.58;;;3.40;99.90;;;;;;6151331;23;20460;-84
2023/02/25 03:03:17;;;;;;;2.88;2.47;;;3.40;99.90;;;;;;6152168;23;20353;-84
2023/02/25 03:05:47;;;;;;;3.67;2.50;;;3.40;99.90;;;;;;6150060;23;20361;-82
2023/02/25 03:08:24;;;;;;;3.15;2.30;;;3.40;99.90;;;;;;6151434;23;20353;-82
2023/02/25 03:10:50;;;;;;;2.72;2.10;;;3.40;99.90;;;;;;6152793;23;20384;-84
2023/02/25 03:13:16;;;;;;;2.55;2.05;;;3.40;99.90;;;;;;6149473;23;20369;-82
2023/02/25 03:15:42;;;;;;;2.80;2.10;;;3.30;99.90;;;;;;6151432;23;20373;-82
2023/02/25 03:18:31;;;;;;;2.50;1.80;;;3.40;99.90;;;;;;6151425;23;20349;-85
2023/02/25 03:20:59;;;;;;;2.20;1.90;;;3.30;99.90;;;;;;6151365;23;20668;-85
2023/02/25 03:23:32;;;;;;;1.83;1.70;;;3.40;99.90;;;;;;6148855;23;20401;-86
2023/02/25 03:26:31;;;;;;;1.75;1.63;;;3.40;99.90;;;;;;6150145;23;20448;-83
2023/02/25 03:28:57;;;;;;;1.92;1.70;;;3.30;99.90;;;;;;6140106;23;20353;-83
2023/02/25 03:31:36;;;;;;;2.00;1.60;;;3.30;99.90;;;;;;6151870;23;20370;-83
2023/02/25 03:34:20;;;;;;;1.75;1.55;;;3.30;99.90;;;;;;6152435;23;20388;-81
2023/02/25 03:36:55;;;;;;;2.05;1.52;;;3.40;99.90;;;;;;6151533;23;21172;-85
2023/02/25 03:39:26;;;;;;;3.88;1.70;;;3.30;99.90;;;;;;6152200;23;20820;-83
2023/02/25 03:41:56;;;;;;;2.10;1.40;;;3.40;99.90;;;;;;6153931;23;20356;-84
2023/02/25 03:44:29;;;;;;;2.28;1.50;;;3.40;99.90;;;;;;6152173;23;20345;-82
2023/02/25 03:46:56;;;;;;;1.98;1.60;;;3.30;99.90;;;;;;6153941;23;20670;-85
2023/02/25 03:49:33;;;;;;;1.70;1.60;;;3.30;99.90;;;;;;6154813;23;20820;-82
2023/02/25 03:52:03;;;;;;;1.42;1.33;;;3.30;99.90;;;;;;6180302;23;21099;-81
2023/02/25 03:54:29;;;;;;;2.10;1.50;;;3.30;99.90;;;;;;6180599;23;20474;-84
2023/02/25 03:56:55;;;;;;;1.87;1.50;;;3.40;99.90;;;;;;6181154;23;20378;-82
2023/02/25 03:59:25;;;;;;;1.65;1.55;;;3.20;99.90;;;;;;6152226;23;20355;-84
2023/02/25 04:01:52;;;;;;;2.60;1.60;;;3.30;99.90;;;;;;6181737;23;20680;-83
2023/02/25 04:04:18;;;;;;;2.92;1.70;;;3.20;99.90;;;;;;6179114;23;20371;-84
2023/02/25 04:06:44;;;;;;;2.30;1.52;;;3.20;99.90;;;;;;6179963;23;20347;-84
2023/02/25 04:09:09;;;;;;;3.03;1.87;;;3.20;99.90;;;;;;6179582;23;20348;-84
2023/02/25 04:11:35;;;;;;;1.60;1.50;;;3.20;99.90;;;;;;6154475;23;20348;-82
2023/02/25 04:14:01;;;;;;;2.10;1.90;;;3.20;99.90;;;;;;6155398;23;20498;-83
2023/02/25 04:16:26;;;;;;;1.80;1.70;;;3.20;99.90;;;;;;6180461;23;20402;-83
2023/02/25 04:18:52;;;;;;;2.00;1.50;;;3.20;99.90;;;;;;6180994;23;20343;-85
2023/02/25 04:21:36;;;;;;;2.27;1.70;;;3.20;99.90;;;;;;6181189;23;20787;-83
2023/02/25 04:24:04;;;;;;;2.35;1.85;;;3.10;99.90;;;;;;6169751;23;20486;-82
2023/02/25 04:26:30;;;;;;;2.90;1.70;;;3.10;99.90;;;;;;6169318;23;20363;-84
2023/02/25 04:28:56;;;;;;;2.28;1.80;;;3.20;99.90;;;;;;6168451;23;20858;-82
2023/02/25 04:31:22;;;;;;;2.42;1.67;;;3.10;99.90;;;;;;6143872;23;20347;-86
2023/02/25 04:33:48;;;;;;;3.10;2.13;;;3.20;99.90;;;;;;6141653;23;20403;-83
2023/02/25 04:36:28;;;;;;;2.20;1.77;;;3.30;99.90;;;;;;6169539;23;20340;-82
2023/02/25 04:38:55;;;;;;;3.25;2.20;;;3.10;99.90;;;;;;6170472;23;20343;-81
2023/02/25 04:41:22;;;;;;;2.75;1.92;;;3.10;99.90;;;;;;6178148;23;20364;-86
2023/02/25 04:43:48;;;;;;;2.03;1.85;;;3.00;99.90;;;;;;6179165;23;20470;-84
2023/02/25 04:46:14;;;;;;;2.28;1.90;;;3.10;99.90;;;;;;6182244;23;20352;-81
2023/02/25 04:48:39;;;;;;;2.22;1.83;;;3.10;99.90;;;;;;6181445;23;20417;-83
2023/02/25 04:51:06;;;;;;;2.83;1.80;;;3.20;99.90;;;;;;6155892;23;20754;-83
2023/02/25 04:53:33;;;;;;;3.47;2.30;;;3.10;99.90;;;;;;6153750;23;20459;-84
2023/02/25 04:56:06;;;;;;;3.23;2.40;;;3.00;99.90;;;;;;6181589;23;20363;-84
2023/02/25 04:58:33;;;;;;;3.55;2.28;;;3.10;99.90;;;;;;6180500;23;20344;-84
2023/02/25 05:01:00;;;;;;;2.35;1.98;;;3.00;99.90;;;;;;6183142;23;20711;-84
2023/02/25 05:03:26;;;;;;;2.35;2.15;;;3.00;99.90;;;;;;6159937;23;20367;-83
2023/02/25 05:05:52;;;;;;;2.55;2.17;;;3.00;99.90;;;;;;6156053;23;20679;-85
2023/02/25 05:08:18;;;;;;;3.90;2.10;;;3.00;99.90;;;;;;6181542;23;20360;-85
2023/02/25 05:10:43;;;;;;;2.30;2.10;;;2.90;99.90;;;;;;6182228;23;20374;-84
2023/02/25 05:13:09;;;;;;;3.00;2.35;;;3.00;99.90;;;;;;6182797;23;20355;-83
2023/02/25 05:15:35;;;;;;;3.27;2.20;;;3.00;99.90;;;;;;6183128;23;20367;-83
2023/02/25 05:18:00;;;;;;;4.00;2.50;;;3.00;99.90;;;;;;6181434;23;21209;-83
2023/02/25 05:20:27;;;;;;;2.95;2.33;;;3.00;99.90;;;;;;6182763;23;20348;-84
2023/02/25 05:22:53;;;;;;;2.70;2.40;;;2.80;99.90;;;;;;6181250;23;20402;-83
2023/02/25 05:25:19;;;;;;;3.03;2.70;;;3.00;99.90;;;;;;6184885;23;20409;-83
2023/02/25 05:27:45;;;;;;;2.57;2.20;;;2.80;99.90;;;;;;6185840;23;20363;-82
2023/02/25 05:30:11;;;;;;;3.73;2.70;;;2.80;99.90;;;;;;6188333;23;20504;-83
2023/02/25 05:32:37;;;;;;;3.22;2.50;;;2.70;99.90;;;;;;6183329;23;20755;-86
2023/02/25 05:35:04;;;;;;;4.97;2.55;;;2.70;99.90;;;;;;6158000;23;20418;-82
2023/02/25 05:37:33;;;;;;;2.90;2.28;;;2.70;99.90;;;;;;6181783;23;20422;-84
2023/02/25 05:39:58;;;;;;;2.47;2.28;;;2.50;99.90;;;;;;6182514;23;20347;-82
2023/02/25 05:42:24;;;;;;;3.30;2.55;;;2.50;99.90;;;;;;6182141;23;20370;-85
2023/02/25 05:44:50;;;;;;;2.40;2.20;;;2.50;99.90;;;;;;6182133;23;20348;-87
2023/02/25 05:47:15;;;;;;;2.23;2.03;;;2.50;99.90;;;;;;6182555;23;20359;-85
2023/02/25 05:49:42;;;;;;;2.80;2.40;;;2.50;99.90;;;;;;6155237;23;20356;-82
2023/02/25 05:52:09;;;;;;;2.45;2.25;;;2.40;99.90;;;;;;6181831;23;20348;-85
2023/02/25 05:54:34;;;;;;;2.35;2.15;;;2.40;99.90;;;;;;6180198;23;20368;-86
2023/02/25 05:57:00;;;;;;;2.73;2.23;;;2.40;99.90;;;;;;6181969;23;20343;-85
2023/02/25 05:59:25;;;;;;;3.77;2.80;;;2.30;99.90;;;;;;6181748;23;20784;-84
2023/02/25 06:01:51;;;;;;;3.40;2.28;;;2.30;99.90;;;;;;6182932;23;20379;-86
2023/02/25 06:04:17;;;;;;;3.13;2.78;;;2.30;99.90;;;;;;6182712;23;20428;-85
2023/02/25 06:06:49;;;;;;;3.63;2.50;;;2.30;99.90;;;;;;6182349;23;20802;-82
2023/02/25 06:09:17;;;;;;;3.72;2.80;;;2.30;99.90;;;;;;6183096;23;20423;-85
2023/02/25 06:11:44;;;;;;;3.07;2.60;;;2.30;99.90;;;;;;6183075;23;20353;-84
2023/02/25 06:14:10;;;;;;;4.00;3.00;;;2.30;99.90;;;;;;6156373;23;20383;-86
2023/02/25 06:16:37;;;;;;;3.73;2.90;;;2.30;99.90;;;;;;6181845;23;20355;-85
2023/02/25 06:19:05;;;;;;;4.13;3.15;;;2.20;99.90;;;;;;6181790;23;20347;-84
2023/02/25 06:21:32;;;;;;;3.40;3.00;;;2.30;99.90;;;;;;6183941;23;20348;-83
2023/02/25 06:24:00;;;;;;;3.80;3.33;;;2.30;99.90;;;;;;6156459;23;20370;-83
2023/02/25 06:26:27;;;;;;;3.78;3.22;;;2.40;99.90;;;;;;6182301;23;20408;-87
2023/02/25 06:28:53;;;;;;;3.72;3.20;;;2.40;99.90;;;;;;6180179;23;20401;-85
2023/02/25 06:31:21;;;;;;;3.83;3.20;;;2.40;99.90;;;;;;6155512;23;20949;-84
2023/02/25 06:33:49;;;;;;;4.20;2.90;;;2.30;99.90;;;;;;6152845;23;20384;-83
2023/02/25 06:36:16;;;;;;;4.45;2.90;;;2.40;99.90;;;;;;6162949;23;20411;-83
2023/02/25 06:38:43;;;;;;;3.38;2.80;;;2.40;99.90;;;;;;6181052;23;20344;-84
2023/02/25 06:41:14;;;;;;;7.55;3.15;;;2.30;99.90;;;;;;6181387;23;20674;-83
2023/02/25 06:43:40;;;;;;;4.10;2.60;;;2.30;99.90;;;;;;6180188;23;20455;-82
2023/02/25 06:46:08;;;;;;;3.53;2.70;;;2.40;99.90;;;;;;6155090;23;20472;-86
2023/02/25 06:48:34;;;;;;;4.00;2.70;;;2.40;99.90;;;;;;6179797;23;20671;-83
2023/02/25 06:51:01;;;;;;;2.78;2.38;;;2.40;99.90;;;;;;6181083;23;20358;-82
2023/02/25 06:53:28;;;;;;;3.03;2.40;;;2.50;99.90;;;;;;6181127;23;20467;-83
2023/02/25 06:55:54;;;;;;;2.50;2.30;;;2.40;99.90;;;;;;6181920;23;20344;-85
2023/02/25 06:58:19;;;;;;;2.40;2.20;;;2.50;99.90;;;;;;6181466;23;20358;-82
2023/02/25 07:00:45;;;;;;;4.27;2.20;;;2.50;99.90;;;;;;6181449;23;20461;-83
2023/02/25 07:03:12;;;;;;;3.10;2.33;;;2.30;99.90;;;;;;6181380;23;20348;-84
2023/02/25 07:05:38;;;;;;;3.08;2.20;;;2.40;99.90;;;;;;6181103;23;20358;-84
2023/02/25 07:08:04;;;;;;;2.87;2.20;;;2.40;99.90;;;;;;6179358;23;20394;-84
2023/02/25 07:10:30;;;;;;;3.08;2.00;;;2.50;99.90;;;;;;6181003;23;20367;-83
2023/02/25 07:12:57;;;;;;;2.67;2.13;;;2.40;99.90;;;;;;6181511;23;20494;-84
2023/02/25 07:15:23;;;;;;;4.35;2.00;;;2.50;99.90;;;;;;6153935;23;20376;-86
2023/02/25 07:17:48;;;;;;;2.85;2.10;;;2.40;99.90;;;;;;6155583;23;20378;-83
2023/02/25 07:20:14;;;;;;;2.27;1.97;;;2.50;99.90;;;;;;6181912;23;20343;-85
2023/02/25 07:22:43;;;;;;;3.70;1.98;;;2.50;99.90;;;;;;6180297;23;20349;-82
2023/02/25 07:25:12;;;;;;;2.20;1.95;;;2.60;99.90;;;;;;6155310;23;20454;-84
2023/02/25 07:27:43;;;;;;;2.22;1.90;;;2.50;99.90;;;;;;6156386;23;20439;-83
2023/02/25 07:30:12;;;;;;;2.55;1.90;;;2.50;99.90;;;;;;6182046;23;20355;-84
2023/02/25 07:32:49;;;;;;;2.50;2.03;;;2.50;99.90;;;;;;6181173;23;20356;-84
2023/02/25 07:35:14;;;;;;;2.50;1.90;;;2.50;99.90;;;;;;6182130;23;20434;-87
2023/02/25 07:37:40;;;;;;;2.28;2.00;;;2.50;99.90;;;;;;6182673;23;20348;-85
2023/02/25 07:40:15;;;;;;;2.00;1.80;;;2.60;99.90;;;;;;6155669;23;20356;-85
2023/02/25 07:42:41;;;;;;;2.00;1.58;;;2.60;99.90;;;;;;6184007;23;20348;-86
2023/02/25 07:45:08;;;;;;;3.33;1.85;;;2.60;99.90;;;;;;6157242;23;20648;-85
2023/02/25 07:47:35;;;;;;;1.92;1.63;;;2.60;99.90;;;;;;6155429;23;20897;-84
2023/02/25 07:50:01;;;;;;;1.90;1.55;;;2.60;99.90;;;;;;6156293;23;20375;-86
2023/02/25 07:52:28;;;;;;;1.77;1.60;;;2.60;99.90;;;;;;6154947;23;20363;-86
2023/02/25 07:54:53;;;;;;;2.38;1.80;;;2.70;99.90;;;;;;6182294;23;20375;-84
2023/02/25 07:57:19;;;;;;;2.20;1.90;;;2.60;99.90;;;;;;6154789;23;20830;-84
2023/02/25 07:59:45;;;;;;;1.90;1.70;;;2.60;99.90;;;;;;6155381;23;20343;-85
2023/02/25 08:02:11;;;;;;;1.80;1.70;;;2.60;99.90;;;;;;6182463;23;20382;-83
2023/02/25 08:04:37;;;;;;;1.80;1.70;;;2.50;99.90;;;;;;6155890;23;20367;-86
2023/02/25 08:07:02;;;;;;;2.17;1.83;;;2.60;99.90;;;;;;6181897;23;20351;-83
2023/02/25 08:09:28;;;;;;;2.13;1.53;;;2.60;99.90;;;;;;6181946;23;20350;-86
2023/02/25 08:11:54;;;;;;;3.67;1.90;;;2.60;99.90;;;;;;6155312;23;20483;-84
2023/02/25 08:14:20;;;;;;;2.83;1.67;;;2.70;99.90;;;;;;6180802;23;20743;-83
2023/02/25 08:16:47;;;;;;;3.08;1.58;;;2.80;99.90;;;;;;6181099;23;20379;-82
2023/02/25 08:19:12;;;;;;;1.95;1.63;;;2.80;99.90;;;;;;6180453;23;20451;-78
2023/02/25 08:22:29;;;;;;;3.37;1.67;;;2.60;99.90;;;;;;6185203;23;20644;-87
2023/02/25 08:25:14;;;;;;;2.13;1.73;;;2.70;99.90;;;;;;6178443;23;20360;-87
2023/02/25 08:27:45;;;;;;;1.70;1.40;;;2.80;99.90;;;;;;6162646;23;20379;-86
2023/02/25 08:30:16;;;;;;;2.03;1.50;;;2.80;99.90;;;;;;6159889;23;20378;-87
2023/02/25 08:32:57;;;;;;;1.55;1.40;;;2.80;99.90;;;;;;6158284;23;20364;-87
2023/02/25 08:35:24;;;;;;;2.30;1.35;;;2.80;99.90;;;;;;6157576;23;20399;-86
2023/02/25 08:37:58;;;;;;;1.30;1.20;;;2.80;99.90;;;;;;6158095;23;20352;-87
2023/02/25 08:40:34;;;;;;;1.40;1.30;;;2.80;99.90;;;;;;6157520;23;20351;-88
2023/02/25 08:43:28;;;;;;;2.00;1.23;;;2.80;99.90;;;;;;6157500;23;20352;-86
2023/02/25 08:46:05;;;;;;;1.63;1.40;;;2.90;99.90;;;;;;6159492;23;20418;-87
2023/02/25 08:48:52;;;;;;;;;;;;;;;;;;;;;
2023/02/25 08:51:32;;;;;;;1.73;1.20;;;2.90;99.90;;;;;;6189551;23;20414;-89
2023/02/25 08:54:11;;;;;;;1.20;1.10;;;3.00;99.90;;;;;;6159954;23;20844;-89
2023/02/25 08:57:08;;;;;;;2.40;1.30;;;3.10;99.90;;;;;;6157804;23;20455;-88
2023/02/25 09:02:35;;;;;;;1.20;1.10;;;3.00;99.90;;;;;;6179954;23;20631;-86
2023/02/25 09:05:03;;;;;;;1.38;1.27;;;3.10;99.90;;;;;;6161227;23;20814;-87
2023/02/25 09:07:31;;;;;;;1.27;1.17;;;3.20;99.90;;;;;;6158612;23;20375;-86
2023/02/25 09:10:11;;;;;;;1.50;1.23;;;3.10;99.90;;;;;;6160457;23;20352;-85
2023/02/25 09:12:46;;;;;;;1.27;1.17;;;3.30;99.90;;;;;;6161822;23;20344;-86
2023/02/25 09:18:10;;;;;;;1.00;1.00;;;3.20;99.90;;;;;;6125521;23;20407;-90
2023/02/25 09:23:28;;;;;;;1.45;1.30;;;3.20;99.90;;;;;;6164131;23;20378;-87
2023/02/25 09:26:00;;;;;;;1.50;1.10;;;3.00;99.90;;;;;;6187480;23;20348;-86
2023/02/25 09:28:26;;;;;;;1.70;1.10;;;3.00;99.90;;;;;;6182794;23;20348;-88
2023/02/25 09:31:04;;;;;;;1.30;1.20;;;3.00;99.90;;;;;;6160916;23;20336;-87
2023/02/25 09:36:34;;;;;;;1.25;1.00;;;3.20;99.90;;;;;;6175332;23;20410;-88
2023/02/25 09:39:00;;;;;;;1.10;1.00;;;3.20;99.90;;;;;;6185236;23;20394;-88
2023/02/25 09:41:43;;;;;;;1.10;1.00;;;3.20;99.90;;;;;;6159177;23;20771;-88
2023/02/25 09:44:26;;;;;;;1.08;0.98;;;3.30;99.90;;;;;;6187178;23;20328;-87
2023/02/25 09:47:01;;;;;;;0.90;0.90;;;3.30;99.90;;;;;;6160324;23;20348;-88
2023/02/25 09:49:56;;;;;;;1.20;1.10;;;3.20;99.90;;;;;;6158795;23;20390;-87
2023/02/25 09:52:32;;;;;;;1.10;1.00;;;3.20;99.90;;;;;;6140604;23;20363;-87
2023/02/25 09:55:22;;;;;;;1.65;1.00;;;3.20;99.90;;;;;;6187573;23;20351;-87
2023/02/25 09:58:09;;;;;;;0.82;0.80;;;3.20;99.90;;;;;;6158359;23;20347;-87
2023/02/25 10:00:43;;;;;;;0.65;0.65;;;3.30;99.90;;;;;;6159828;23;21062;-88
2023/02/25 10:03:25;;;;;;;0.80;0.70;;;3.20;99.90;;;;;;6160037;23;20727;-87
2023/02/25 10:06:08;;;;;;;0.70;0.65;;;3.50;99.90;;;;;;6161273;23;20418;-88
2023/02/25 10:08:52;;;;;;;0.60;0.60;;;3.50;99.90;;;;;;6186369;23;20370;-88
2023/02/25 10:11:50;;;;;;;0.85;0.70;;;3.50;99.90;;;;;;6163531;23;20352;-87
2023/02/25 10:14:53;;;;;;;0.68;0.68;;;3.50;99.90;;;;;;6167061;23;20478;-88
2023/02/25 10:17:51;;;;;;;0.60;0.60;;;3.70;99.90;;;;;;6165191;23;20406;-87
2023/02/25 10:20:37;;;;;;;0.80;0.70;;;3.50;99.90;;;;;;6168177;23;20347;-86
2023/02/25 10:23:23;;;;;;;0.60;0.60;;;3.40;99.90;;;;;;6165034;23;20351;-87
2023/02/25 10:26:10;;;;;;;0.85;0.60;;;3.20;99.90;;;;;;6166384;23;20351;-86
2023/02/25 10:28:38;;;;;;;0.90;0.68;;;3.30;99.90;;;;;;6164777;23;20347;-87
2023/02/25 10:31:08;;;;;;;1.13;0.88;;;3.40;99.90;;;;;;6167431;23;20821;-85
2023/02/25 10:33:40;;;;;;;1.00;0.90;;;3.50;99.90;;;;;;6167762;23;20347;-86
2023/02/25 10:36:13;;;;;;;1.27;0.88;;;3.70;99.90;;;;;;6166210;23;20359;-87
2023/02/25 10:38:50;;;;;;;1.70;1.30;;;3.80;99.90;;;;;;6161178;23;20431;-87
2023/02/25 10:41:21;;;;;;;1.40;0.88;;;4.00;99.90;;;;;;6161820;23;20710;-88
2023/02/25 10:43:49;;;;;;;1.08;0.80;;;4.00;99.90;;;;;;6160279;23;20462;-88
2023/02/25 10:46:40;;;;;;;0.50;0.50;;;3.80;99.90;;;;;;6163629;23;20336;-85
2023/02/25 10:50:14;;;;;;;;;;;;;;;;;;;;;
2023/02/25 10:56:16;;;;;;;0.57;0.57;;;3.00;99.90;;;;;;6165273;23;20810;-88
2023/02/25 10:59:28;;;;;;;1.50;0.52;;;3.40;99.90;;;;;;6164581;23;20355;-87
2023/02/25 11:01:59;;;;;;;0.80;0.60;;;3.80;99.90;;;;;;6118266;23;20800;-88
2023/02/25 11:04:37;;;;;;;1.73;0.80;;;3.60;99.90;;;;;;6172367;23;20625;-87
2023/02/25 11:07:49;;;;;;;0.88;0.75;;;3.60;99.90;;;;;;6172141;23;20348;-88
2023/02/25 11:10:18;;;;;;;1.95;1.30;;;3.60;99.90;;;;;;6171571;23;20347;-87
2023/02/25 11:12:55;;;;;;;0.80;0.70;;;3.60;99.90;;;;;;6168317;23;20408;-86
2023/02/25 11:15:27;;;;;;;1.08;0.77;;;3.20;99.90;;;;;;6162180;23;20949;-86
2023/02/25 11:18:18;;;;;;;0.60;0.60;;;2.50;99.90;;;;;;6158526;23;20522;-86
2023/02/25 11:20:54;;;;;;;1.58;1.38;;;2.20;99.90;;;;;;6156644;23;20795;-85
2023/02/25 11:23:23;;;;;;;1.30;1.20;;;2.00;99.90;;;;;;6184020;23;20355;-83
2023/02/25 11:25:52;;;;;;;1.67;1.13;;;2.00;99.90;;;;;;6181616;23;20377;-86
2023/02/25 11:28:29;;;;;;;1.25;0.80;;;2.00;99.90;;;;;;6158809;23;20379;-85
2023/02/25 11:31:16;;;;;;;1.02;0.73;;;2.10;99.90;;;;;;6182214;23;20394;-84
2023/02/25 11:34:04;;;;;;;1.48;1.00;;;2.20;99.90;;;;;;6182387;23;20360;-86
2023/02/25 11:36:33;;;;;;;3.75;2.50;;;2.40;99.90;;;;;;6181929;23;20390;-86
2023/02/25 11:39:23;;;;;;;0.70;0.70;;;2.60;99.90;;;;;;6182437;23;20879;-85
2023/02/25 11:41:55;;;;;;;1.98;1.20;;;2.80;99.90;;;;;;6184327;23;20745;-86
2023/02/25 11:44:29;;;;;;;0.90;0.70;;;2.90;99.90;;;;;;6162759;23;20442;-85
2023/02/25 11:47:06;;;;;;;0.87;0.77;;;2.90;99.90;;;;;;6160036;23;20398;-86
2023/02/25 11:49:57;;;;;;;0.70;0.70;;;2.90;99.90;;;;;;6184958;23;20344;-85
2023/02/25 11:53:10;;;;;;;1.17;0.70;;;2.80;99.90;;;;;;6159431;23;20359;-87
2023/02/25 11:55:52;;;;;;;1.05;0.90;;;3.10;99.90;;;;;;6146992;23;21201;-87
2023/02/25 11:58:50;;;;;;;2.08;0.70;;;3.20;99.90;;;;;;6163223;23;20356;-86
2023/02/25 12:01:31;;;;;;;0.93;0.88;;;3.00;99.90;;;;;;6187646;23;20355;-86
2023/02/25 12:04:03;;;;;;;1.58;1.00;;;2.90;99.90;;;;;;6189370;23;20379;-85
2023/02/25 12:06:34;;;;;;;1.00;0.90;;;2.90;99.90;;;;;;6161700;23;20355;-86
2023/02/25 12:09:37;;;;;;;1.60;1.10;;;2.90;99.90;;;;;;6187402;23;20343;-88
2023/02/25 12:12:28;;;;;;;1.10;1.00;;;2.70;99.90;;;;;;6163581;23;20414;-88
2023/02/25 12:15:31;;;;;;;1.38;0.82;;;2.80;99.90;;;;;;6194271;23;20802;-87
2023/02/25 12:18:25;;;;;;;1.02;0.85;;;3.00;99.90;;;;;;6163254;23;20431;-86
2023/02/25 12:21:15;;;;;;;1.77;0.85;;;3.00;99.90;;;;;;6190798;23;20809;-85
2023/02/25 12:23:59;;;;;;;2.17;1.00;;;2.90;99.90;;;;;;6188653;23;20419;-86
2023/02/25 12:26:48;;;;;;;1.90;1.00;;;2.60;99.90;;;;;;6162760;23;20378;-86
2023/02/25 12:29:17;;;;;;;1.20;0.93;;;2.50;99.90;;;;;;6174238;23;20352;-86
2023/02/25 12:31:58;;;;;;;1.10;1.00;;;2.60;99.90;;;;;;6165037;23;20396;-87
2023/02/25 12:34:36;;;;;;;1.75;1.15;;;2.80;99.90;;;;;;6165038;23;20410;-88
2023/02/25 12:37:29;;;;;;;1.05;0.90;;;2.90;99.90;;;;;;6165118;23;20356;-88
2023/02/25 12:40:31;;;;;;;1.17;0.95;;;3.10;99.90;;;;;;6190696;23;20347;-88
2023/02/25 12:43:34;;;;;;;1.10;0.80;;;3.20;99.90;;;;;;6190622;23;20348;-85
2023/02/25 12:46:35;;;;;;;1.17;1.00;;;3.00;99.90;;;;;;6164974;23;20413;-86
2023/02/25 12:49:22;;;;;;;1.55;0.80;;;2.70;99.90;;;;;;6167352;23;20358;-86
2023/02/25 12:52:00;;;;;;;1.90;0.90;;;2.60;99.90;;;;;;6163220;23;20363;-88
2023/02/25 12:54:27;;;;;;;1.10;0.90;;;2.60;99.90;;;;;;6164759;23;20375;-86
2023/02/25 12:57:11;;;;;;;1.40;1.00;;;2.60;99.90;;;;;;6190501;23;20335;-87
2023/02/25 13:00:18;;;;;;;3.17;1.50;;;2.50;99.90;;;;;;6189221;23;20340;-86
2023/02/25 13:02:53;;;;;;;1.50;1.20;;;2.10;99.90;;;;;;6165143;23;20385;-87
2023/02/25 13:05:37;;;;;;;1.90;1.00;;;2.00;99.90;;;;;;6164739;23;20375;-86
2023/02/25 13:08:30;;;;;;;1.33;1.10;;;2.10;99.90;;;;;;6166379;23;20641;-87
2023/02/25 13:11:10;;;;;;;1.63;1.13;;;2.20;99.90;;;;;;6194890;23;20339;-87
2023/02/25 13:14:10;;;;;;;1.13;0.90;;;2.20;99.90;;;;;;6165030;23;20403;-87
2023/02/25 13:17:24;;;;;;;1.20;1.10;;;2.20;99.90;;;;;;6166877;23;20579;-87
2023/02/25 13:20:45;;;;;;;1.40;1.10;;;2.40;99.90;;;;;;6139981;23;20401;-87
2023/02/25 13:23:41;;;;;;;1.88;1.10;;;2.50;99.90;;;;;;6167264;23;20358;-88
2023/02/25 13:26:26;;;;;;;3.13;1.35;;;2.60;99.90;;;;;;6164177;23;20356;-87
2023/02/25 13:29:00;;;;;;;1.13;0.95;;;2.70;99.90;;;;;;6167608;23;20355;-88
2023/02/25 13:31:47;;;;;;;2.17;0.95;;;2.70;99.90;;;;;;6193859;23;20366;-87
2023/02/25 13:34:31;;;;;;;3.70;1.10;;;2.70;99.90;;;;;;6168287;23;20368;-88
2023/02/25 13:37:22;;;;;;;1.58;1.00;;;2.80;99.90;;;;;;6192184;23;20324;-88
2023/02/25 13:40:00;;;;;;;2.22;1.05;;;2.90;99.90;;;;;;6188284;23;20418;-88
2023/02/25 13:43:03;;;;;;;3.30;1.20;;;3.00;99.90;;;;;;6194168;23;20335;-88
2023/02/25 13:45:47;;;;;;;1.30;1.20;;;3.10;99.90;;;;;;6167491;23;20358;-88
2023/02/25 13:48:31;;;;;;;3.63;1.40;;;3.00;99.90;;;;;;6165589;23;20414;-87
2023/02/25 13:51:12;;;;;;;2.37;1.00;;;3.00;99.90;;;;;;6165760;23;20418;-86